sensor_id;sensor_type;location;lat;lon;timestamp;P1;durP1;ratioP1;P2;durP2;ratioP2
3867;SDS011;1949;48.152;11.528;2022-10-16T00:01:34;2.33;;;1.80;;
3867;SDS011;1949;48.152;11.528;2022-10-16T00:04:00;2.17;;;1.73;;
3867;SDS011;1949;48.152;11.528;2022-10-16T00:06:28;3.47;;;1.83;;
3867;SDS011;1949;48.152;11.528;2022-10-16T00:08:55;4.50;;;1.47;;
3867;SDS011;1949;48.152;11.528;2022-10-16T00:11:26;1.70;;;1.40;;
3867;SDS011;1949;48.152;11.528;2022-10-16T00:13:58;19.73;;;1.70;;
3867;SDS011;1949;48.152;11.528;2022-10-16T00:16:27;6.50;;;1.93;;
3867;SDS011;1949;48.152;11.528;2022-10-16T00:18:55;1.90;;;1.60;;
3867;SDS011;1949;48.152;11.528;2022-10-16T00:21:22;4.73;;;2.33;;
3867;SDS011;1949;48.152;11.528;2022-10-16T00:23:50;1.77;;;1.60;;
3867;SDS011;1949;48.152;11.528;2022-10-16T00:26:18;2.40;;;1.70;;
3867;SDS011;1949;48.152;11.528;2022-10-16T00:28:47;1.43;;;1.20;;
3867;SDS011;1949;48.152;11.528;2022-10-16T00:31:14;2.03;;;1.53;;
3867;SDS011;1949;48.152;11.528;2022-10-16T00:33:41;4.40;;;1.40;;
3867;SDS011;1949;48.152;11.528;2022-10-16T00:36:09;2.60;;;1.60;;
3867;SDS011;1949;48.152;11.528;2022-10-16T00:38:37;2.90;;;1.57;;
3867;SDS011;1949;48.152;11.528;2022-10-16T00:41:09;3.30;;;1.80;;
3867;SDS011;1949;48.152;11.528;2022-10-16T00:43:47;14.40;;;4.83;;
3867;SDS011;1949;48.152;11.528;2022-10-16T00:46:17;7.63;;;3.83;;
3867;SDS011;1949;48.152;11.528;2022-10-16T00:49:31;6.00;;;2.60;;
3867;SDS011;1949;48.152;11.528;2022-10-16T00:51:41;9.13;;;4.70;;
3867;SDS011;1949;48.152;11.528;2022-10-16T00:54:13;16.77;;;8.40;;
3867;SDS011;1949;48.152;11.528;2022-10-16T00:56:43;4.83;;;3.40;;
3867;SDS011;1949;48.152;11.528;2022-10-16T00:59:15;4.10;;;2.33;;
3867;SDS011;1949;48.152;11.528;2022-10-16T01:04:15;2.37;;;1.73;;
3867;SDS011;1949;48.152;11.528;2022-10-16T01:07:06;3.67;;;2.30;;
3867;SDS011;1949;48.152;11.528;2022-10-16T01:12:57;2.77;;;1.80;;
3867;SDS011;1949;48.152;11.528;2022-10-16T01:15:37;5.17;;;3.17;;
3867;SDS011;1949;48.152;11.528;2022-10-16T01:18:37;5.70;;;2.70;;
3867;SDS011;1949;48.152;11.528;2022-10-16T01:29:56;4.40;;;2.07;;
3867;SDS011;1949;48.152;11.528;2022-10-16T01:32:40;4.80;;;1.90;;
3867;SDS011;1949;48.152;11.528;2022-10-16T01:40:16;1.77;;;1.67;;
3867;SDS011;1949;48.152;11.528;2022-10-16T01:42:46;1.90;;;1.40;;
3867;SDS011;1949;48.152;11.528;2022-10-16T01:45:18;4.87;;;2.07;;
3867;SDS011;1949;48.152;11.528;2022-10-16T01:47:45;3.23;;;2.23;;
3867;SDS011;1949;48.152;11.528;2022-10-16T01:50:12;6.73;;;3.20;;
3867;SDS011;1949;48.152;11.528;2022-10-16T01:52:41;5.13;;;2.33;;
3867;SDS011;1949;48.152;11.528;2022-10-16T01:55:12;4.97;;;2.33;;
3867;SDS011;1949;48.152;11.528;2022-10-16T01:57:44;3.87;;;2.40;;
3867;SDS011;1949;48.152;11.528;2022-10-16T02:00:16;4.47;;;1.70;;
3867;SDS011;1949;48.152;11.528;2022-10-16T02:02:46;3.40;;;1.90;;
3867;SDS011;1949;48.152;11.528;2022-10-16T02:08:16;6.50;;;1.60;;
3867;SDS011;1949;48.152;11.528;2022-10-16T02:10:43;1.60;;;1.30;;
3867;SDS011;1949;48.152;11.528;2022-10-16T02:13:31;5.43;;;1.57;;
3867;SDS011;1949;48.152;11.528;2022-10-16T02:16:01;1.40;;;1.30;;
3867;SDS011;1949;48.152;11.528;2022-10-16T02:18:27;1.77;;;1.47;;
3867;SDS011;1949;48.152;11.528;2022-10-16T02:20:57;3.87;;;2.20;;
3867;SDS011;1949;48.152;11.528;2022-10-16T02:26:04;7.83;;;1.47;;
3867;SDS011;1949;48.152;11.528;2022-10-16T02:28:37;3.43;;;2.37;;
3867;SDS011;1949;48.152;11.528;2022-10-16T02:31:09;7.30;;;2.07;;
3867;SDS011;1949;48.152;11.528;2022-10-16T02:33:38;1.10;;;1.00;;
3867;SDS011;1949;48.152;11.528;2022-10-16T02:36:07;1.67;;;1.37;;
3867;SDS011;1949;48.152;11.528;2022-10-16T02:38:34;4.27;;;1.73;;
3867;SDS011;1949;48.152;11.528;2022-10-16T02:41:01;2.40;;;1.40;;
3867;SDS011;1949;48.152;11.528;2022-10-16T02:43:29;2.00;;;1.47;;
3867;SDS011;1949;48.152;11.528;2022-10-16T02:45:56;1.63;;;1.30;;
3867;SDS011;1949;48.152;11.528;2022-10-16T02:48:22;2.43;;;1.37;;
3867;SDS011;1949;48.152;11.528;2022-10-16T02:50:50;2.13;;;1.43;;
3867;SDS011;1949;48.152;11.528;2022-10-16T02:53:16;2.13;;;1.50;;
3867;SDS011;1949;48.152;11.528;2022-10-16T02:55:43;1.87;;;1.17;;
3867;SDS011;1949;48.152;11.528;2022-10-16T02:58:09;1.27;;;1.13;;
3867;SDS011;1949;48.152;11.528;2022-10-16T03:00:36;1.30;;;1.00;;
3867;SDS011;1949;48.152;11.528;2022-10-16T03:03:03;1.97;;;1.20;;
3867;SDS011;1949;48.152;11.528;2022-10-16T03:05:29;1.73;;;1.57;;
3867;SDS011;1949;48.152;11.528;2022-10-16T03:07:55;9.20;;;1.23;;
3867;SDS011;1949;48.152;11.528;2022-10-16T03:10:21;3.50;;;1.30;;
3867;SDS011;1949;48.152;11.528;2022-10-16T03:12:48;5.43;;;1.50;;
3867;SDS011;1949;48.152;11.528;2022-10-16T03:15:14;2.57;;;1.60;;
3867;SDS011;1949;48.152;11.528;2022-10-16T03:17:41;1.70;;;1.10;;
3867;SDS011;1949;48.152;11.528;2022-10-16T03:20:08;1.50;;;1.23;;
3867;SDS011;1949;48.152;11.528;2022-10-16T03:22:41;1.67;;;1.30;;
3867;SDS011;1949;48.152;11.528;2022-10-16T03:25:07;2.10;;;1.10;;
3867;SDS011;1949;48.152;11.528;2022-10-16T03:27:33;1.30;;;1.20;;
3867;SDS011;1949;48.152;11.528;2022-10-16T03:30:02;3.70;;;1.23;;
3867;SDS011;1949;48.152;11.528;2022-10-16T03:32:30;2.33;;;1.43;;
3867;SDS011;1949;48.152;11.528;2022-10-16T03:34:56;1.30;;;1.07;;
3867;SDS011;1949;48.152;11.528;2022-10-16T03:37:22;1.80;;;1.07;;
3867;SDS011;1949;48.152;11.528;2022-10-16T03:39:50;2.03;;;1.43;;
3867;SDS011;1949;48.152;11.528;2022-10-16T03:42:17;4.17;;;1.23;;
3867;SDS011;1949;48.152;11.528;2022-10-16T03:44:44;1.40;;;0.90;;
3867;SDS011;1949;48.152;11.528;2022-10-16T03:47:16;2.50;;;1.50;;
3867;SDS011;1949;48.152;11.528;2022-10-16T03:49:47;1.40;;;1.13;;
3867;SDS011;1949;48.152;11.528;2022-10-16T03:52:13;1.07;;;0.97;;
3867;SDS011;1949;48.152;11.528;2022-10-16T03:54:40;2.10;;;1.13;;
3867;SDS011;1949;48.152;11.528;2022-10-16T03:57:06;1.33;;;1.23;;
3867;SDS011;1949;48.152;11.528;2022-10-16T03:59:33;3.30;;;2.27;;
3867;SDS011;1949;48.152;11.528;2022-10-16T04:01:58;3.37;;;2.00;;
3867;SDS011;1949;48.152;11.528;2022-10-16T04:04:24;4.90;;;1.10;;
3867;SDS011;1949;48.152;11.528;2022-10-16T04:06:51;1.90;;;1.40;;
3867;SDS011;1949;48.152;11.528;2022-10-16T04:09:17;1.40;;;1.10;;
3867;SDS011;1949;48.152;11.528;2022-10-16T04:11:43;1.37;;;0.97;;
3867;SDS011;1949;48.152;11.528;2022-10-16T04:14:09;21.90;;;7.90;;
3867;SDS011;1949;48.152;11.528;2022-10-16T04:16:34;25.77;;;10.70;;
3867;SDS011;1949;48.152;11.528;2022-10-16T04:19:00;5.03;;;2.90;;
3867;SDS011;1949;48.152;11.528;2022-10-16T04:21:26;3.37;;;2.70;;
3867;SDS011;1949;48.152;11.528;2022-10-16T04:23:52;3.97;;;2.10;;
3867;SDS011;1949;48.152;11.528;2022-10-16T04:26:18;6.83;;;4.30;;
3867;SDS011;1949;48.152;11.528;2022-10-16T04:28:44;10.53;;;5.03;;
3867;SDS011;1949;48.152;11.528;2022-10-16T04:31:10;11.37;;;5.50;;
3867;SDS011;1949;48.152;11.528;2022-10-16T04:33:35;14.87;;;6.60;;
3867;SDS011;1949;48.152;11.528;2022-10-16T04:36:01;21.10;;;8.60;;
3867;SDS011;1949;48.152;11.528;2022-10-16T04:38:28;14.43;;;6.20;;
3867;SDS011;1949;48.152;11.528;2022-10-16T04:40:54;14.13;;;6.17;;
3867;SDS011;1949;48.152;11.528;2022-10-16T04:43:20;8.23;;;4.30;;
3867;SDS011;1949;48.152;11.528;2022-10-16T04:45:47;8.50;;;4.50;;
3867;SDS011;1949;48.152;11.528;2022-10-16T04:48:12;13.77;;;6.70;;
3867;SDS011;1949;48.152;11.528;2022-10-16T04:50:38;13.40;;;5.30;;
3867;SDS011;1949;48.152;11.528;2022-10-16T04:53:04;29.43;;;12.87;;
3867;SDS011;1949;48.152;11.528;2022-10-16T04:55:31;13.83;;;6.60;;
3867;SDS011;1949;48.152;11.528;2022-10-16T04:57:57;22.73;;;9.80;;
3867;SDS011;1949;48.152;11.528;2022-10-16T05:00:23;7.43;;;3.90;;
3867;SDS011;1949;48.152;11.528;2022-10-16T05:02:52;36.50;;;12.20;;
3867;SDS011;1949;48.152;11.528;2022-10-16T05:05:18;6.67;;;3.57;;
3867;SDS011;1949;48.152;11.528;2022-10-16T05:07:47;17.00;;;7.60;;
3867;SDS011;1949;48.152;11.528;2022-10-16T05:10:13;15.53;;;7.80;;
3867;SDS011;1949;48.152;11.528;2022-10-16T05:12:38;10.90;;;5.10;;
3867;SDS011;1949;48.152;11.528;2022-10-16T05:15:05;9.60;;;4.80;;
3867;SDS011;1949;48.152;11.528;2022-10-16T05:17:34;6.90;;;3.90;;
3867;SDS011;1949;48.152;11.528;2022-10-16T05:20:00;13.50;;;6.63;;
3867;SDS011;1949;48.152;11.528;2022-10-16T05:22:26;7.23;;;3.37;;
3867;SDS011;1949;48.152;11.528;2022-10-16T05:24:52;17.30;;;8.30;;
3867;SDS011;1949;48.152;11.528;2022-10-16T05:27:17;8.00;;;4.03;;
3867;SDS011;1949;48.152;11.528;2022-10-16T05:29:47;7.10;;;4.00;;
3867;SDS011;1949;48.152;11.528;2022-10-16T05:32:14;27.33;;;7.07;;
3867;SDS011;1949;48.152;11.528;2022-10-16T05:34:41;16.27;;;7.30;;
3867;SDS011;1949;48.152;11.528;2022-10-16T05:37:07;8.10;;;4.60;;
3867;SDS011;1949;48.152;11.528;2022-10-16T05:39:33;9.83;;;5.40;;
3867;SDS011;1949;48.152;11.528;2022-10-16T05:41:58;8.20;;;4.33;;
3867;SDS011;1949;48.152;11.528;2022-10-16T05:44:25;2.20;;;1.87;;
3867;SDS011;1949;48.152;11.528;2022-10-16T05:46:51;5.23;;;2.53;;
3867;SDS011;1949;48.152;11.528;2022-10-16T05:49:16;11.17;;;4.30;;
3867;SDS011;1949;48.152;11.528;2022-10-16T05:51:42;14.53;;;6.63;;
3867;SDS011;1949;48.152;11.528;2022-10-16T05:54:09;6.00;;;3.60;;
3867;SDS011;1949;48.152;11.528;2022-10-16T05:56:35;11.63;;;2.50;;
3867;SDS011;1949;48.152;11.528;2022-10-16T05:59:00;2.97;;;1.83;;
3867;SDS011;1949;48.152;11.528;2022-10-16T06:01:27;6.90;;;2.03;;
3867;SDS011;1949;48.152;11.528;2022-10-16T06:03:53;19.53;;;6.70;;
3867;SDS011;1949;48.152;11.528;2022-10-16T06:06:20;11.93;;;6.30;;
3867;SDS011;1949;48.152;11.528;2022-10-16T06:08:48;9.17;;;4.93;;
3867;SDS011;1949;48.152;11.528;2022-10-16T06:11:18;6.77;;;2.90;;
3867;SDS011;1949;48.152;11.528;2022-10-16T06:13:48;3.97;;;2.30;;
3867;SDS011;1949;48.152;11.528;2022-10-16T06:16:15;14.90;;;4.90;;
3867;SDS011;1949;48.152;11.528;2022-10-16T06:18:41;4.57;;;2.33;;
3867;SDS011;1949;48.152;11.528;2022-10-16T06:21:10;2.43;;;2.00;;
3867;SDS011;1949;48.152;11.528;2022-10-16T06:23:38;10.87;;;3.87;;
3867;SDS011;1949;48.152;11.528;2022-10-16T06:26:05;5.97;;;3.87;;
3867;SDS011;1949;48.152;11.528;2022-10-16T06:28:32;19.80;;;8.53;;
3867;SDS011;1949;48.152;11.528;2022-10-16T06:31:02;9.53;;;5.73;;
3867;SDS011;1949;48.152;11.528;2022-10-16T06:33:28;5.60;;;3.03;;
3867;SDS011;1949;48.152;11.528;2022-10-16T06:36:00;4.03;;;2.33;;
3867;SDS011;1949;48.152;11.528;2022-10-16T06:38:26;6.83;;;3.30;;
3867;SDS011;1949;48.152;11.528;2022-10-16T06:40:53;4.73;;;2.43;;
3867;SDS011;1949;48.152;11.528;2022-10-16T06:43:19;5.07;;;2.87;;
3867;SDS011;1949;48.152;11.528;2022-10-16T06:45:50;12.03;;;3.00;;
3867;SDS011;1949;48.152;11.528;2022-10-16T06:48:19;11.53;;;5.73;;
3867;SDS011;1949;48.152;11.528;2022-10-16T06:50:58;11.80;;;6.10;;
3867;SDS011;1949;48.152;11.528;2022-10-16T06:53:36;18.03;;;9.23;;
3867;SDS011;1949;48.152;11.528;2022-10-16T06:56:06;40.57;;;16.50;;
3867;SDS011;1949;48.152;11.528;2022-10-16T06:58:32;20.33;;;9.83;;
3867;SDS011;1949;48.152;11.528;2022-10-16T07:00:58;13.30;;;7.30;;
3867;SDS011;1949;48.152;11.528;2022-10-16T07:03:24;8.17;;;3.80;;
3867;SDS011;1949;48.152;11.528;2022-10-16T07:05:49;37.73;;;16.63;;
3867;SDS011;1949;48.152;11.528;2022-10-16T07:08:15;25.43;;;10.63;;
3867;SDS011;1949;48.152;11.528;2022-10-16T07:10:41;13.77;;;5.80;;
3867;SDS011;1949;48.152;11.528;2022-10-16T07:13:07;8.20;;;4.30;;
3867;SDS011;1949;48.152;11.528;2022-10-16T07:15:32;10.97;;;5.20;;
3867;SDS011;1949;48.152;11.528;2022-10-16T07:17:59;16.17;;;8.03;;
3867;SDS011;1949;48.152;11.528;2022-10-16T07:20:25;17.07;;;7.17;;
3867;SDS011;1949;48.152;11.528;2022-10-16T07:22:51;57.33;;;26.27;;
3867;SDS011;1949;48.152;11.528;2022-10-16T07:25:17;8.93;;;4.73;;
3867;SDS011;1949;48.152;11.528;2022-10-16T07:27:43;30.63;;;12.40;;
3867;SDS011;1949;48.152;11.528;2022-10-16T07:30:09;28.60;;;13.37;;
3867;SDS011;1949;48.152;11.528;2022-10-16T07:32:35;30.07;;;13.77;;
3867;SDS011;1949;48.152;11.528;2022-10-16T07:35:01;32.20;;;12.07;;
3867;SDS011;1949;48.152;11.528;2022-10-16T07:37:27;24.70;;;10.70;;
3867;SDS011;1949;48.152;11.528;2022-10-16T07:39:52;16.10;;;7.60;;
3867;SDS011;1949;48.152;11.528;2022-10-16T07:42:19;10.00;;;4.90;;
3867;SDS011;1949;48.152;11.528;2022-10-16T07:44:45;8.67;;;4.40;;
3867;SDS011;1949;48.152;11.528;2022-10-16T07:47:11;8.03;;;4.40;;
3867;SDS011;1949;48.152;11.528;2022-10-16T07:49:36;81.17;;;35.10;;
3867;SDS011;1949;48.152;11.528;2022-10-16T07:52:02;33.30;;;13.80;;
3867;SDS011;1949;48.152;11.528;2022-10-16T07:54:28;18.93;;;8.17;;
3867;SDS011;1949;48.152;11.528;2022-10-16T07:56:54;24.57;;;12.60;;
3867;SDS011;1949;48.152;11.528;2022-10-16T07:59:20;6.57;;;4.10;;
3867;SDS011;1949;48.152;11.528;2022-10-16T08:01:46;19.63;;;10.23;;
3867;SDS011;1949;48.152;11.528;2022-10-16T08:04:11;15.53;;;7.30;;
3867;SDS011;1949;48.152;11.528;2022-10-16T08:06:38;27.03;;;12.40;;
3867;SDS011;1949;48.152;11.528;2022-10-16T08:09:06;55.63;;;23.33;;
3867;SDS011;1949;48.152;11.528;2022-10-16T08:11:32;28.10;;;13.73;;
3867;SDS011;1949;48.152;11.528;2022-10-16T08:13:58;18.70;;;7.10;;
3867;SDS011;1949;48.152;11.528;2022-10-16T08:16:23;31.40;;;15.67;;
3867;SDS011;1949;48.152;11.528;2022-10-16T08:18:50;10.63;;;5.43;;
3867;SDS011;1949;48.152;11.528;2022-10-16T08:21:17;42.57;;;18.27;;
3867;SDS011;1949;48.152;11.528;2022-10-16T08:23:45;30.10;;;14.03;;
3867;SDS011;1949;48.152;11.528;2022-10-16T08:26:11;23.60;;;9.93;;
3867;SDS011;1949;48.152;11.528;2022-10-16T08:28:38;28.13;;;14.67;;
3867;SDS011;1949;48.152;11.528;2022-10-16T08:31:13;38.87;;;18.67;;
3867;SDS011;1949;48.152;11.528;2022-10-16T08:33:41;14.40;;;6.73;;
3867;SDS011;1949;48.152;11.528;2022-10-16T08:36:09;26.30;;;11.30;;
3867;SDS011;1949;48.152;11.528;2022-10-16T08:38:35;28.97;;;12.43;;
3867;SDS011;1949;48.152;11.528;2022-10-16T08:41:15;10.73;;;4.97;;
3867;SDS011;1949;48.152;11.528;2022-10-16T08:44:07;16.57;;;8.50;;
3867;SDS011;1949;48.152;11.528;2022-10-16T08:49:11;5.30;;;3.47;;
3867;SDS011;1949;48.152;11.528;2022-10-16T08:51:41;7.60;;;3.80;;
3867;SDS011;1949;48.152;11.528;2022-10-16T08:54:26;7.90;;;3.87;;
3867;SDS011;1949;48.152;11.528;2022-10-16T08:57:12;13.70;;;5.97;;
3867;SDS011;1949;48.152;11.528;2022-10-16T08:59:44;2.77;;;1.90;;
3867;SDS011;1949;48.152;11.528;2022-10-16T09:05:09;6.33;;;4.10;;
3867;SDS011;1949;48.152;11.528;2022-10-16T09:07:49;8.10;;;4.47;;
3867;SDS011;1949;48.152;11.528;2022-10-16T09:16:11;3.47;;;2.17;;
3867;SDS011;1949;48.152;11.528;2022-10-16T09:21:47;2.40;;;1.60;;
3867;SDS011;1949;48.152;11.528;2022-10-16T09:24:26;2.17;;;1.60;;
3867;SDS011;1949;48.152;11.528;2022-10-16T09:26:51;3.53;;;2.50;;
3867;SDS011;1949;48.152;11.528;2022-10-16T09:29:18;6.03;;;3.57;;
3867;SDS011;1949;48.152;11.528;2022-10-16T09:31:46;3.90;;;2.57;;
3867;SDS011;1949;48.152;11.528;2022-10-16T09:34:34;2.20;;;1.63;;
3867;SDS011;1949;48.152;11.528;2022-10-16T09:37:03;2.90;;;2.00;;
3867;SDS011;1949;48.152;11.528;2022-10-16T09:39:48;3.67;;;1.80;;
3867;SDS011;1949;48.152;11.528;2022-10-16T09:42:27;1.63;;;1.40;;
3867;SDS011;1949;48.152;11.528;2022-10-16T09:44:57;2.10;;;1.53;;
3867;SDS011;1949;48.152;11.528;2022-10-16T09:47:25;3.80;;;1.83;;
3867;SDS011;1949;48.152;11.528;2022-10-16T09:49:55;3.70;;;2.23;;
3867;SDS011;1949;48.152;11.528;2022-10-16T09:52:25;5.60;;;1.60;;
3867;SDS011;1949;48.152;11.528;2022-10-16T09:54:54;2.30;;;1.50;;
3867;SDS011;1949;48.152;11.528;2022-10-16T10:00:16;2.20;;;1.60;;
3867;SDS011;1949;48.152;11.528;2022-10-16T10:02:43;6.70;;;1.80;;
3867;SDS011;1949;48.152;11.528;2022-10-16T10:05:26;1.50;;;1.40;;
3867;SDS011;1949;48.152;11.528;2022-10-16T10:07:54;3.07;;;1.73;;
3867;SDS011;1949;48.152;11.528;2022-10-16T10:10:24;1.63;;;1.50;;
3867;SDS011;1949;48.152;11.528;2022-10-16T10:12:52;1.50;;;1.33;;
3867;SDS011;1949;48.152;11.528;2022-10-16T10:15:19;2.10;;;1.40;;
3867;SDS011;1949;48.152;11.528;2022-10-16T10:17:56;6.03;;;1.43;;
3867;SDS011;1949;48.152;11.528;2022-10-16T10:22:57;1.67;;;1.30;;
3867;SDS011;1949;48.152;11.528;2022-10-16T10:25:31;1.20;;;1.10;;
3867;SDS011;1949;48.152;11.528;2022-10-16T10:31:24;11.03;;;4.63;;
3867;SDS011;1949;48.152;11.528;2022-10-16T10:39:11;27.63;;;10.17;;
3867;SDS011;1949;48.152;11.528;2022-10-16T10:50:25;12.50;;;6.70;;
3867;SDS011;1949;48.152;11.528;2022-10-16T10:56:05;33.70;;;13.27;;
3867;SDS011;1949;48.152;11.528;2022-10-16T11:04:05;16.63;;;8.90;;
3867;SDS011;1949;48.152;11.528;2022-10-16T11:07:27;6.63;;;3.90;;
3867;SDS011;1949;48.152;11.528;2022-10-16T11:10:04;18.47;;;8.67;;
3867;SDS011;1949;48.152;11.528;2022-10-16T11:12:39;10.33;;;4.40;;
3867;SDS011;1949;48.152;11.528;2022-10-16T11:15:15;50.20;;;23.60;;
3867;SDS011;1949;48.152;11.528;2022-10-16T11:17:46;15.97;;;7.20;;
3867;SDS011;1949;48.152;11.528;2022-10-16T11:22:47;5.73;;;2.63;;
3867;SDS011;1949;48.152;11.528;2022-10-16T11:25:27;30.33;;;14.37;;
3867;SDS011;1949;48.152;11.528;2022-10-16T11:28:07;31.37;;;16.50;;
3867;SDS011;1949;48.152;11.528;2022-10-16T11:31:05;23.90;;;11.93;;
3867;SDS011;1949;48.152;11.528;2022-10-16T11:33:41;61.83;;;24.50;;
3867;SDS011;1949;48.152;11.528;2022-10-16T11:49:34;43.47;;;21.90;;
3867;SDS011;1949;48.152;11.528;2022-10-16T11:54:32;2.60;;;2.03;;
3867;SDS011;1949;48.152;11.528;2022-10-16T11:57:11;3.53;;;1.00;;
3867;SDS011;1949;48.152;11.528;2022-10-16T11:59:45;6.13;;;3.07;;
3867;SDS011;1949;48.152;11.528;2022-10-16T12:05:20;6.60;;;2.03;;
3867;SDS011;1949;48.152;11.528;2022-10-16T12:08:11;7.83;;;3.90;;
3867;SDS011;1949;48.152;11.528;2022-10-16T12:10:41;16.60;;;8.30;;
3867;SDS011;1949;48.152;11.528;2022-10-16T12:18:42;1.63;;;1.10;;
3867;SDS011;1949;48.152;11.528;2022-10-16T12:21:09;1.73;;;1.30;;
3867;SDS011;1949;48.152;11.528;2022-10-16T12:24:00;2.90;;;1.93;;
3867;SDS011;1949;48.152;11.528;2022-10-16T12:26:26;5.40;;;3.10;;
3867;SDS011;1949;48.152;11.528;2022-10-16T12:29:08;2.87;;;1.90;;
3867;SDS011;1949;48.152;11.528;2022-10-16T12:31:43;2.30;;;1.50;;
3867;SDS011;1949;48.152;11.528;2022-10-16T12:34:32;20.30;;;9.50;;
3867;SDS011;1949;48.152;11.528;2022-10-16T12:39:50;11.93;;;5.10;;
3867;SDS011;1949;48.152;11.528;2022-10-16T12:44:53;1.77;;;1.53;;
3867;SDS011;1949;48.152;11.528;2022-10-16T12:49:59;13.43;;;5.57;;
3867;SDS011;1949;48.152;11.528;2022-10-16T12:55:02;7.53;;;2.33;;
3867;SDS011;1949;48.152;11.528;2022-10-16T13:20:26;1.33;;;1.00;;
3867;SDS011;1949;48.152;11.528;2022-10-16T13:23:13;3.73;;;1.57;;
3867;SDS011;1949;48.152;11.528;2022-10-16T13:26:00;2.73;;;1.80;;
3867;SDS011;1949;48.152;11.528;2022-10-16T13:28:33;2.33;;;1.63;;
3867;SDS011;1949;48.152;11.528;2022-10-16T13:31:02;4.40;;;2.83;;
3867;SDS011;1949;48.152;11.528;2022-10-16T13:33:33;8.57;;;3.23;;
3867;SDS011;1949;48.152;11.528;2022-10-16T13:36:02;4.57;;;2.33;;
3867;SDS011;1949;48.152;11.528;2022-10-16T13:38:33;2.00;;;1.20;;
3867;SDS011;1949;48.152;11.528;2022-10-16T13:41:03;15.03;;;2.50;;
3867;SDS011;1949;48.152;11.528;2022-10-16T13:43:35;1.73;;;1.57;;
3867;SDS011;1949;48.152;11.528;2022-10-16T13:46:14;1.77;;;1.47;;
3867;SDS011;1949;48.152;11.528;2022-10-16T13:48:40;4.60;;;2.30;;
3867;SDS011;1949;48.152;11.528;2022-10-16T13:51:11;2.60;;;1.87;;
3867;SDS011;1949;48.152;11.528;2022-10-16T13:53:39;1.63;;;0.80;;
3867;SDS011;1949;48.152;11.528;2022-10-16T13:56:07;2.20;;;1.20;;
3867;SDS011;1949;48.152;11.528;2022-10-16T13:58:38;1.30;;;1.20;;
3867;SDS011;1949;48.152;11.528;2022-10-16T14:01:05;2.87;;;2.07;;
3867;SDS011;1949;48.152;11.528;2022-10-16T14:03:51;2.70;;;0.80;;
3867;SDS011;1949;48.152;11.528;2022-10-16T14:06:18;1.90;;;1.53;;
3867;SDS011;1949;48.152;11.528;2022-10-16T14:08:58;4.60;;;1.90;;
3867;SDS011;1949;48.152;11.528;2022-10-16T14:11:24;2.27;;;1.83;;
3867;SDS011;1949;48.152;11.528;2022-10-16T14:13:51;4.27;;;1.33;;
3867;SDS011;1949;48.152;11.528;2022-10-16T14:16:22;1.40;;;1.30;;
3867;SDS011;1949;48.152;11.528;2022-10-16T14:19:03;1.93;;;1.73;;
3867;SDS011;1949;48.152;11.528;2022-10-16T14:21:31;2.90;;;1.90;;
3867;SDS011;1949;48.152;11.528;2022-10-16T14:23:59;1.67;;;1.17;;
3867;SDS011;1949;48.152;11.528;2022-10-16T14:26:40;12.40;;;1.73;;
3867;SDS011;1949;48.152;11.528;2022-10-16T14:29:12;2.40;;;1.17;;
3867;SDS011;1949;48.152;11.528;2022-10-16T14:31:39;1.70;;;1.47;;
3867;SDS011;1949;48.152;11.528;2022-10-16T14:34:22;2.50;;;1.37;;
3867;SDS011;1949;48.152;11.528;2022-10-16T14:37:14;3.53;;;1.47;;
3867;SDS011;1949;48.152;11.528;2022-10-16T14:39:50;2.37;;;1.30;;
3867;SDS011;1949;48.152;11.528;2022-10-16T14:42:17;7.73;;;1.57;;
3867;SDS011;1949;48.152;11.528;2022-10-16T14:44:44;1.93;;;1.10;;
3867;SDS011;1949;48.152;11.528;2022-10-16T14:47:19;2.57;;;1.47;;
3867;SDS011;1949;48.152;11.528;2022-10-16T14:49:52;0.83;;;0.83;;
3867;SDS011;1949;48.152;11.528;2022-10-16T14:52:24;1.97;;;1.37;;
3867;SDS011;1949;48.152;11.528;2022-10-16T14:54:50;1.37;;;1.27;;
3867;SDS011;1949;48.152;11.528;2022-10-16T14:57:20;3.17;;;1.93;;
3867;SDS011;1949;48.152;11.528;2022-10-16T14:59:52;1.60;;;1.20;;
3867;SDS011;1949;48.152;11.528;2022-10-16T15:04:57;2.43;;;1.40;;
3867;SDS011;1949;48.152;11.528;2022-10-16T15:07:35;2.23;;;1.20;;
3867;SDS011;1949;48.152;11.528;2022-10-16T15:10:02;1.30;;;1.03;;
3867;SDS011;1949;48.152;11.528;2022-10-16T15:12:28;2.03;;;1.10;;
3867;SDS011;1949;48.152;11.528;2022-10-16T15:14:56;3.27;;;1.10;;
3867;SDS011;1949;48.152;11.528;2022-10-16T15:17:21;7.47;;;3.50;;
3867;SDS011;1949;48.152;11.528;2022-10-16T15:19:47;86.23;;;45.63;;
3867;SDS011;1949;48.152;11.528;2022-10-16T15:22:13;151.97;;;75.67;;
3867;SDS011;1949;48.152;11.528;2022-10-16T15:24:38;95.07;;;45.77;;
3867;SDS011;1949;48.152;11.528;2022-10-16T15:27:04;277.73;;;138.53;;
3867;SDS011;1949;48.152;11.528;2022-10-16T15:29:30;226.13;;;111.27;;
3867;SDS011;1949;48.152;11.528;2022-10-16T15:31:56;144.73;;;74.47;;
3867;SDS011;1949;48.152;11.528;2022-10-16T15:34:22;158.23;;;80.33;;
3867;SDS011;1949;48.152;11.528;2022-10-16T15:36:47;54.97;;;24.23;;
3867;SDS011;1949;48.152;11.528;2022-10-16T15:39:17;33.03;;;15.77;;
3867;SDS011;1949;48.152;11.528;2022-10-16T15:41:44;92.43;;;50.57;;
3867;SDS011;1949;48.152;11.528;2022-10-16T15:44:15;63.80;;;34.10;;
3867;SDS011;1949;48.152;11.528;2022-10-16T15:46:44;113.47;;;56.00;;
3867;SDS011;1949;48.152;11.528;2022-10-16T15:49:11;185.67;;;91.43;;
3867;SDS011;1949;48.152;11.528;2022-10-16T15:51:39;61.67;;;31.27;;
3867;SDS011;1949;48.152;11.528;2022-10-16T15:54:06;101.37;;;50.33;;
3867;SDS011;1949;48.152;11.528;2022-10-16T15:56:32;16.70;;;9.33;;
3867;SDS011;1949;48.152;11.528;2022-10-16T15:58:58;21.27;;;12.03;;
3867;SDS011;1949;48.152;11.528;2022-10-16T16:01:26;14.57;;;8.17;;
3867;SDS011;1949;48.152;11.528;2022-10-16T16:03:53;29.10;;;15.97;;
3867;SDS011;1949;48.152;11.528;2022-10-16T16:06:21;141.53;;;63.80;;
3867;SDS011;1949;48.152;11.528;2022-10-16T16:08:50;100.93;;;45.20;;
3867;SDS011;1949;48.152;11.528;2022-10-16T16:11:16;28.57;;;13.57;;
3867;SDS011;1949;48.152;11.528;2022-10-16T16:13:43;31.30;;;16.93;;
3867;SDS011;1949;48.152;11.528;2022-10-16T16:16:14;18.53;;;9.90;;
3867;SDS011;1949;48.152;11.528;2022-10-16T16:18:41;78.83;;;37.07;;
3867;SDS011;1949;48.152;11.528;2022-10-16T16:23:37;27.57;;;13.10;;
3867;SDS011;1949;48.152;11.528;2022-10-16T16:26:04;14.80;;;7.67;;
3867;SDS011;1949;48.152;11.528;2022-10-16T16:28:39;19.33;;;6.93;;
3867;SDS011;1949;48.152;11.528;2022-10-16T16:31:05;7.70;;;3.00;;
3867;SDS011;1949;48.152;11.528;2022-10-16T16:33:31;13.67;;;4.73;;
3867;SDS011;1949;48.152;11.528;2022-10-16T16:35:58;46.87;;;21.70;;
3867;SDS011;1949;48.152;11.528;2022-10-16T16:38:25;16.50;;;6.37;;
3867;SDS011;1949;48.152;11.528;2022-10-16T16:40:57;8.37;;;5.00;;
3867;SDS011;1949;48.152;11.528;2022-10-16T16:43:24;11.47;;;6.63;;
3867;SDS011;1949;48.152;11.528;2022-10-16T16:45:51;10.40;;;5.50;;
3867;SDS011;1949;48.152;11.528;2022-10-16T16:48:21;16.50;;;7.77;;
3867;SDS011;1949;48.152;11.528;2022-10-16T16:50:48;39.43;;;17.43;;
3867;SDS011;1949;48.152;11.528;2022-10-16T16:53:14;76.17;;;38.10;;
3867;SDS011;1949;48.152;11.528;2022-10-16T16:55:40;76.33;;;38.70;;
3867;SDS011;1949;48.152;11.528;2022-10-16T16:58:06;53.07;;;26.80;;
3867;SDS011;1949;48.152;11.528;2022-10-16T17:00:32;40.73;;;19.43;;
3867;SDS011;1949;48.152;11.528;2022-10-16T17:02:58;40.90;;;19.20;;
3867;SDS011;1949;48.152;11.528;2022-10-16T17:05:23;29.90;;;14.00;;
3867;SDS011;1949;48.152;11.528;2022-10-16T17:07:49;10.27;;;5.90;;
3867;SDS011;1949;48.152;11.528;2022-10-16T17:10:15;41.50;;;20.23;;
3867;SDS011;1949;48.152;11.528;2022-10-16T17:12:41;36.40;;;15.07;;
3867;SDS011;1949;48.152;11.528;2022-10-16T17:15:06;31.60;;;16.63;;
3867;SDS011;1949;48.152;11.528;2022-10-16T17:17:33;26.20;;;11.80;;
3867;SDS011;1949;48.152;11.528;2022-10-16T17:19:58;15.60;;;8.27;;
3867;SDS011;1949;48.152;11.528;2022-10-16T17:22:24;25.53;;;12.07;;
3867;SDS011;1949;48.152;11.528;2022-10-16T17:24:50;14.37;;;8.57;;